createdAt,value
2022-09-07T00:00:42.555Z,64.76
2022-09-07T00:03:10.280Z,64.96
2022-09-07T00:05:44.795Z,64.97
2022-09-07T00:08:12.465Z,64.90
2022-09-07T00:10:39.526Z,64.63
2022-09-07T00:13:07.771Z,64.48
2022-09-07T00:15:39.384Z,64.81
2022-09-07T00:18:06.463Z,64.90
2022-09-07T00:20:33.569Z,64.59
2022-09-07T00:23:00.539Z,64.83
2022-09-07T00:25:29.041Z,64.68
2022-09-07T00:27:58.669Z,64.80
2022-09-07T00:30:27.177Z,65.04
2022-09-07T00:32:54.098Z,64.90
2022-09-07T00:35:20.879Z,64.25
2022-09-07T00:37:47.790Z,64.82
2022-09-07T00:40:14.688Z,64.17
2022-09-07T00:42:41.512Z,64.51
2022-09-07T00:45:15.267Z,64.92
2022-09-07T00:47:48.472Z,64.30
2022-09-07T00:50:40.016Z,64.36
2022-09-07T00:53:19.937Z,64.69
2022-09-07T00:55:49.628Z,64.30
2022-09-07T00:58:17.423Z,64.76
2022-09-07T01:00:46.594Z,64.73
2022-09-07T01:03:16.416Z,64.68
2022-09-07T01:05:49.279Z,65.00
2022-09-07T01:08:16.616Z,64.63
2022-09-07T01:10:47.051Z,64.22
2022-09-07T01:13:15.261Z,64.47
2022-09-07T01:16:01.025Z,64.54
2022-09-07T01:18:49.981Z,64.36
2022-09-07T01:21:54.441Z,64.85
2022-09-07T01:24:55.311Z,65.00
2022-09-07T01:27:37.304Z,65.52
2022-09-07T01:30:07.011Z,65.19
2022-09-07T01:32:45.903Z,65.00
2022-09-07T01:35:27.020Z,64.93
2022-09-07T01:38:08.871Z,65.15
2022-09-07T01:40:49.396Z,65.17
2022-09-07T01:44:03.822Z,65.39
2022-09-07T01:46:37.138Z,65.36
2022-09-07T01:49:11.883Z,65.42
2022-09-07T01:51:44.180Z,65.52
2022-09-07T01:54:45.737Z,65.34
2022-09-07T01:57:22.556Z,65.77
2022-09-07T02:00:09.372Z,65.82
2022-09-07T02:02:48.512Z,65.96
2022-09-07T02:05:28.278Z,65.82
2022-09-07T02:08:03.474Z,65.93
2022-09-07T02:10:46.734Z,66.09
2022-09-07T02:13:18.604Z,66.10
2022-09-07T02:15:49.277Z,65.86
2022-09-07T02:18:16.642Z,66.37
2022-09-07T02:20:48.398Z,66.37
2022-09-07T02:23:20.680Z,66.44
2022-09-07T02:26:01.570Z,66.05
2022-09-07T02:28:32.681Z,66.43
2022-09-07T02:31:00.479Z,66.70
2022-09-07T02:33:28.665Z,66.06
2022-09-07T02:35:56.162Z,66.54
2022-09-07T02:38:23.514Z,66.45
2022-09-07T02:40:58.247Z,66.59
2022-09-07T02:43:25.880Z,66.54
2022-09-07T02:46:26.713Z,66.58
2022-09-07T02:48:59.915Z,66.77
2022-09-07T02:51:35.403Z,66.48
2022-09-07T02:54:09.856Z,66.63
2022-09-07T02:56:58.681Z,66.56
2022-09-07T02:59:44.871Z,66.22
2022-09-07T03:02:18.548Z,66.29
2022-09-07T03:05:02.053Z,65.98
2022-09-07T03:07:43.995Z,66.35
2022-09-07T03:10:13.532Z,66.39
2022-09-07T03:12:46.261Z,66.40
2022-09-07T03:15:21.913Z,66.13
2022-09-07T03:17:49.334Z,65.84
2022-09-07T03:20:19.321Z,66.07
2022-09-07T03:22:47.722Z,65.95
2022-09-07T03:25:16.029Z,66.22
2022-09-07T03:27:43.409Z,65.87
2022-09-07T03:30:11.906Z,66.02
2022-09-07T03:32:39.483Z,66.10
2022-09-07T03:35:08.125Z,65.79
2022-09-07T03:37:38.570Z,66.02
2022-09-07T03:40:08.883Z,66.41
2022-09-07T03:42:38.805Z,66.11
2022-09-07T03:45:06.829Z,66.91
2022-09-07T03:47:38.199Z,66.40
2022-09-07T03:50:06.130Z,66.67
2022-09-07T03:52:34.491Z,66.55
2022-09-07T03:55:01.333Z,66.52
2022-09-07T03:57:30.508Z,66.83
2022-09-07T03:59:57.300Z,66.44
2022-09-07T04:02:24.416Z,66.35
2022-09-07T04:04:51.387Z,66.71
2022-09-07T04:07:18.234Z,66.76
2022-09-07T04:09:45.129Z,67.07
2022-09-07T04:12:11.974Z,67.21
2022-09-07T04:14:38.911Z,66.74
2022-09-07T04:17:05.986Z,66.85
2022-09-07T04:19:32.998Z,66.91
2022-09-07T04:21:59.976Z,66.95
2022-09-07T04:24:27.035Z,66.50
2022-09-07T04:26:54.022Z,66.52
2022-09-07T04:29:21.005Z,66.55
2022-09-07T04:31:47.823Z,66.21
2022-09-07T04:34:15.006Z,66.43
2022-09-07T04:36:41.966Z,66.30
2022-09-07T04:39:09.966Z,66.25
2022-09-07T04:41:36.941Z,66.17
2022-09-07T04:44:04.388Z,66.19
2022-09-07T04:46:36.676Z,66.02
2022-09-07T04:49:07.555Z,64.98
2022-09-07T04:51:35.390Z,64.66
2022-09-07T04:54:04.059Z,64.12
2022-09-07T04:56:32.261Z,64.73
2022-09-07T04:59:01.390Z,64.18
2022-09-07T05:01:29.029Z,63.02
2022-09-07T05:03:56.047Z,62.85
2022-09-07T05:06:23.733Z,62.36
2022-09-07T05:08:53.256Z,61.56
2022-09-07T05:11:27.733Z,61.75
2022-09-07T05:14:00.202Z,60.92
2022-09-07T05:16:28.094Z,60.82
2022-09-07T05:19:01.656Z,60.65
2022-09-07T05:21:31.577Z,60.68
2022-09-07T05:24:00.188Z,60.85
2022-09-07T05:26:30.159Z,60.56
2022-09-07T05:31:46.262Z,60.22
2022-09-07T05:34:35.800Z,60.33
2022-09-07T05:37:02.652Z,60.22
2022-09-07T05:39:30.453Z,59.83
2022-09-07T05:41:57.358Z,59.67
2022-09-07T05:47:11.638Z,59.04
2022-09-07T05:49:38.539Z,58.50
2022-09-07T05:52:05.545Z,58.54
2022-09-07T05:54:32.405Z,57.87
2022-09-07T05:56:59.298Z,57.83
2022-09-07T05:59:26.239Z,58.22
2022-09-07T06:01:53.161Z,57.82
2022-09-07T06:04:20.229Z,58.29
2022-09-07T06:07:04.644Z,58.61
2022-09-07T06:09:34.397Z,56.11
2022-09-07T06:12:04.898Z,53.20
2022-09-07T06:14:33.027Z,52.10
2022-09-07T06:17:01.073Z,51.22
2022-09-07T06:19:28.020Z,49.76
2022-09-07T06:21:54.846Z,47.92
2022-09-07T06:24:21.860Z,47.16
2022-09-07T06:26:48.649Z,47.48
2022-09-07T06:29:15.533Z,47.61
2022-09-07T06:34:29.245Z,45.41
2022-09-07T06:36:56.705Z,45.25
2022-09-07T06:39:23.648Z,44.82
2022-09-07T06:44:25.392Z,45.97
2022-09-07T06:47:07.483Z,46.16
2022-09-07T06:49:34.485Z,47.13
2022-09-07T06:52:01.369Z,47.60
2022-09-07T06:57:15.123Z,48.35
2022-09-07T06:59:42.028Z,48.70
2022-09-07T07:02:11.886Z,48.31
2022-09-07T07:04:41.001Z,48.36
2022-09-07T07:07:12.897Z,48.02
2022-09-07T07:09:40.571Z,47.72
2022-09-07T07:12:07.644Z,47.96
2022-09-07T07:14:39.765Z,47.13
2022-09-07T07:17:12.672Z,47.02
2022-09-07T07:19:39.548Z,47.50
2022-09-07T07:24:53.331Z,47.10
2022-09-07T07:27:21.829Z,47.48
2022-09-07T07:29:48.710Z,48.24
2022-09-07T07:32:15.927Z,48.90
2022-09-07T07:34:42.833Z,49.47
2022-09-07T07:37:09.604Z,49.71
2022-09-07T07:42:23.393Z,48.39
2022-09-07T07:47:37.910Z,46.80
2022-09-07T07:55:44.097Z,47.05
2022-09-07T07:58:13.261Z,47.46
2022-09-07T08:00:53.831Z,47.34
2022-09-07T08:03:22.806Z,46.75
2022-09-07T08:05:49.666Z,46.17
2022-09-07T08:08:16.591Z,47.00
2022-09-07T08:10:43.607Z,45.10
2022-09-07T08:13:10.512Z,42.90
2022-09-07T08:15:44.677Z,40.90
2022-09-07T08:18:12.557Z,38.69
2022-09-07T08:20:42.431Z,37.08
2022-09-07T08:23:09.193Z,37.04
2022-09-07T08:25:36.233Z,37.54
2022-09-07T08:28:04.355Z,38.31
2022-09-07T08:30:31.297Z,37.65
2022-09-07T08:32:58.107Z,32.69
2022-09-07T08:35:24.984Z,30.90
2022-09-07T08:37:53.161Z,31.26
2022-09-07T08:40:20.728Z,33.05
2022-09-07T08:43:03.695Z,33.90
2022-09-07T08:45:49.245Z,32.29
2022-09-07T08:48:21.148Z,29.28
2022-09-07T08:50:57.174Z,24.63
2022-09-07T08:53:25.710Z,25.40
2022-09-07T08:56:01.908Z,26.36
2022-09-07T08:58:50.791Z,27.15
2022-09-07T09:01:38.782Z,27.07
2022-09-07T09:04:26.295Z,28.69
2022-09-07T09:07:35.626Z,31.21
2022-09-07T09:10:25.968Z,33.64
2022-09-07T09:12:58.814Z,35.43
2022-09-07T09:15:45.770Z,35.95
2022-09-07T09:18:34.642Z,36.09
2022-09-07T09:21:01.817Z,32.34
2022-09-07T09:23:37.645Z,29.85
2022-09-07T09:26:25.872Z,28.26
2022-09-07T09:28:53.415Z,30.67
2022-09-07T09:31:26.659Z,33.38
2022-09-07T09:34:05.635Z,34.55
2022-09-07T09:36:40.288Z,31.73
2022-09-07T09:39:26.349Z,32.05
2022-09-07T09:41:55.470Z,33.93
2022-09-07T09:44:23.598Z,34.37
2022-09-07T09:49:41.924Z,34.65
2022-09-07T09:52:45.120Z,34.03
2022-09-07T09:55:30.635Z,34.51
2022-09-07T10:04:01.067Z,35.80
2022-09-07T10:06:30.732Z,36.20
2022-09-07T10:08:58.513Z,36.12
2022-09-07T10:14:36.391Z,37.43
2022-09-07T10:17:25.780Z,37.51
2022-09-07T10:19:52.730Z,37.71
2022-09-07T10:22:25.175Z,38.39
2022-09-07T10:24:52.310Z,38.68
2022-09-07T10:27:29.154Z,39.43
2022-09-07T10:29:56.422Z,39.79
2022-09-07T10:32:26.323Z,41.07
2022-09-07T10:35:08.068Z,41.84
2022-09-07T10:37:59.476Z,41.84
2022-09-07T10:40:51.345Z,42.14
2022-09-07T10:43:42.373Z,42.26
2022-09-07T10:46:55.878Z,43.27
2022-09-07T10:49:33.661Z,44.41
2022-09-07T10:52:17.942Z,45.05
2022-09-07T10:54:59.420Z,45.73
2022-09-07T10:57:33.703Z,46.26
2022-09-07T11:00:12.856Z,46.85
2022-09-07T11:06:03.213Z,47.43
2022-09-07T11:12:05.856Z,48.73
2022-09-07T11:14:46.609Z,49.23
2022-09-07T11:17:26.918Z,50.17
2022-09-07T11:20:17.862Z,50.78
2022-09-07T11:22:57.378Z,51.47
2022-09-07T11:25:35.899Z,52.43
2022-09-07T11:28:13.336Z,52.21
2022-09-07T11:30:50.026Z,52.92
2022-09-07T11:33:23.200Z,53.13
2022-09-07T11:36:15.721Z,53.62
2022-09-07T11:38:59.778Z,53.86
2022-09-07T11:41:46.344Z,54.19
2022-09-07T11:44:25.801Z,54.50
2022-09-07T11:47:04.371Z,54.61
2022-09-07T11:49:31.155Z,54.90
2022-09-07T11:52:10.805Z,55.14
2022-09-07T11:54:58.254Z,55.82
2022-09-07T11:57:55.827Z,55.75
2022-09-07T12:00:47.645Z,55.85
2022-09-07T12:03:36.051Z,56.24
2022-09-07T12:06:24.841Z,56.60
2022-09-07T12:09:00.360Z,56.97
2022-09-07T12:11:41.031Z,57.37
2022-09-07T12:14:32.068Z,57.54
2022-09-07T12:17:10.119Z,57.83
2022-09-07T12:19:37.015Z,58.00
2022-09-07T12:22:04.095Z,58.26
2022-09-07T12:24:43.135Z,58.71
2022-09-07T12:27:22.239Z,59.22
2022-09-07T12:29:52.736Z,59.52
2022-09-07T12:32:55.636Z,59.95
2022-09-07T12:35:42.049Z,60.21
2022-09-07T12:38:17.918Z,60.88
2022-09-07T12:40:58.818Z,61.11
2022-09-07T12:43:28.633Z,60.85
2022-09-07T12:45:56.879Z,61.22
2022-09-07T12:48:46.794Z,61.92
2022-09-07T12:54:34.538Z,61.54
2022-09-07T12:57:29.596Z,62.04
2022-09-07T13:00:15.037Z,62.42
2022-09-07T13:03:07.040Z,62.95
2022-09-07T13:05:59.083Z,62.78
2022-09-07T13:08:31.473Z,63.40
2022-09-07T13:11:35.867Z,63.26
2022-09-07T13:14:09.511Z,63.71
2022-09-07T13:19:50.572Z,64.08
2022-09-07T13:22:35.397Z,64.39
2022-09-07T13:25:24.868Z,64.70
2022-09-07T13:27:58.520Z,64.21
2022-09-07T13:30:31.174Z,65.16
2022-09-07T13:33:27.020Z,65.41
2022-09-07T13:36:09.540Z,65.65
2022-09-07T13:38:36.831Z,65.74
2022-09-07T13:41:13.044Z,66.37
2022-09-07T13:43:40.436Z,66.67
2022-09-07T13:46:28.339Z,67.28
2022-09-07T13:49:13.583Z,67.80
2022-09-07T13:51:49.786Z,68.26
2022-09-07T13:54:58.757Z,68.33
2022-09-07T13:58:01.678Z,68.93
2022-09-07T14:00:28.946Z,68.87
2022-09-07T14:02:56.998Z,69.22
2022-09-07T14:05:26.651Z,68.78
2022-09-07T14:07:53.494Z,68.69
2022-09-07T14:10:26.198Z,69.22
2022-09-07T14:13:14.662Z,68.76
2022-09-07T14:15:44.085Z,68.80
2022-09-07T14:18:31.685Z,68.69
2022-09-07T14:20:59.117Z,68.93
2022-09-07T14:23:34.977Z,68.84
2022-09-07T14:26:18.329Z,68.24
2022-09-07T14:29:01.055Z,69.06
2022-09-07T14:31:29.670Z,68.69
2022-09-07T14:33:59.329Z,69.14
2022-09-07T14:36:46.571Z,68.60
2022-09-07T14:39:17.340Z,68.17
2022-09-07T14:41:45.062Z,68.75
2022-09-07T14:44:28.531Z,68.70
2022-09-07T14:46:57.176Z,68.85
2022-09-07T14:49:24.789Z,68.61
2022-09-07T14:51:53.321Z,68.70
2022-09-07T14:54:21.439Z,68.47
2022-09-07T14:57:17.805Z,68.77
2022-09-07T14:59:47.215Z,68.65
2022-09-07T15:02:22.663Z,68.22
2022-09-07T15:05:20.848Z,68.55
2022-09-07T15:07:48.829Z,68.47
2022-09-07T15:10:41.192Z,68.32
2022-09-07T15:13:36.599Z,68.65
2022-09-07T15:16:06.767Z,68.90
2022-09-07T15:18:55.096Z,67.97
2022-09-07T15:21:24.331Z,68.61
2022-09-07T15:23:53.025Z,68.50
2022-09-07T15:29:13.101Z,68.61
2022-09-07T15:31:43.586Z,68.73
2022-09-07T15:34:16.889Z,68.59
2022-09-07T15:36:48.776Z,68.67
2022-09-07T15:39:20.486Z,69.48
2022-09-07T15:41:49.629Z,69.06
2022-09-07T15:44:24.955Z,69.63
2022-09-07T15:49:50.060Z,69.46
2022-09-07T15:52:17.903Z,70.32
2022-09-07T15:54:44.973Z,70.48
2022-09-07T15:59:58.962Z,69.85
2022-09-07T16:05:13.864Z,69.73
2022-09-07T16:10:33.384Z,70.76
2022-09-07T16:13:01.805Z,70.18
2022-09-07T16:15:29.842Z,70.34
2022-09-07T16:17:56.801Z,69.99
2022-09-07T16:20:23.642Z,69.88
2022-09-07T16:25:38.114Z,70.58
2022-09-07T16:28:05.779Z,69.95
2022-09-07T16:30:33.250Z,70.40
2022-09-07T16:33:00.197Z,70.31
2022-09-07T16:35:27.156Z,70.56
2022-09-07T16:40:41.939Z,70.05
2022-09-07T16:43:09.982Z,70.70
2022-09-07T16:48:23.709Z,70.70
2022-09-07T16:51:01.184Z,70.64
2022-09-07T16:53:31.106Z,70.84
2022-09-07T16:56:18.303Z,70.32
2022-09-07T16:58:51.520Z,70.74
2022-09-07T17:01:20.871Z,70.89
2022-09-07T17:03:50.991Z,70.93
2022-09-07T17:06:19.851Z,70.49
2022-09-07T17:08:47.347Z,70.90
2022-09-07T17:11:18.326Z,70.60
2022-09-07T17:13:45.943Z,70.40
2022-09-07T17:16:21.529Z,70.58
2022-09-07T17:21:38.470Z,71.58
2022-09-07T17:24:07.126Z,70.87
2022-09-07T17:26:34.937Z,71.11
2022-09-07T17:29:02.303Z,71.38
2022-09-07T17:34:22.223Z,71.78
2022-09-07T17:36:49.148Z,71.65
2022-09-07T17:39:18.187Z,72.50
2022-09-07T17:41:47.853Z,72.27
2022-09-07T17:44:14.876Z,71.92
2022-09-07T17:46:41.707Z,72.24
2022-09-07T17:49:16.777Z,72.31
2022-09-07T17:51:47.008Z,71.72
2022-09-07T17:54:19.359Z,71.81
2022-09-07T17:56:46.324Z,72.33
2022-09-07T18:02:02.373Z,72.35
2022-09-07T18:04:29.361Z,72.34
2022-09-07T18:06:56.163Z,72.41
2022-09-07T18:09:23.347Z,72.50
2022-09-07T18:11:50.908Z,71.99
2022-09-07T18:14:19.335Z,72.63
2022-09-07T18:16:49.326Z,72.94
2022-09-07T18:19:19.507Z,72.92
2022-09-07T18:21:49.249Z,72.52
2022-09-07T18:24:22.143Z,73.12
2022-09-07T18:26:52.116Z,72.75
2022-09-07T18:29:32.396Z,73.62
2022-09-07T18:32:08.240Z,72.89
2022-09-07T18:34:36.673Z,73.14
2022-09-07T18:37:03.701Z,73.09
2022-09-07T18:39:31.054Z,73.21
2022-09-07T18:41:57.945Z,72.72
2022-09-07T18:47:21.650Z,72.96
2022-09-07T18:49:51.610Z,72.63
2022-09-07T18:55:08.745Z,72.31
2022-09-07T18:57:36.537Z,72.37
2022-09-07T19:00:05.886Z,72.93
2022-09-07T19:02:33.598Z,72.27
2022-09-07T19:07:47.538Z,72.06
2022-09-07T19:10:16.839Z,72.62
2022-09-07T19:12:45.821Z,72.53
2022-09-07T19:15:13.131Z,73.22
2022-09-07T19:17:39.866Z,73.04
2022-09-07T19:20:07.119Z,72.45
2022-09-07T19:22:34.454Z,72.45
2022-09-07T19:25:01.362Z,72.67
2022-09-07T19:27:28.399Z,72.20
2022-09-07T19:29:55.345Z,72.72
2022-09-07T19:32:25.579Z,72.30
2022-09-07T19:34:54.789Z,72.50
2022-09-07T19:37:26.083Z,72.21
2022-09-07T19:39:57.056Z,72.13
2022-09-07T19:42:25.313Z,72.05
2022-09-07T19:44:53.158Z,71.99
2022-09-07T19:47:20.731Z,71.97
2022-09-07T19:49:47.881Z,71.85
2022-09-07T19:52:15.529Z,72.17
2022-09-07T19:54:42.420Z,71.80
2022-09-07T19:57:09.459Z,71.93
2022-09-07T19:59:36.256Z,71.53
2022-09-07T20:02:03.188Z,71.85
2022-09-07T20:04:30.195Z,71.99
2022-09-07T20:06:57.065Z,71.87
2022-09-07T20:09:24.110Z,71.51
2022-09-07T20:11:51.064Z,71.41
2022-09-07T20:14:19.266Z,71.01
2022-09-07T20:16:48.423Z,71.52
2022-09-07T20:19:15.503Z,71.34
2022-09-07T20:21:43.153Z,71.73
2022-09-07T20:24:14.527Z,70.93
2022-09-07T20:26:41.895Z,71.15
2022-09-07T20:29:26.919Z,71.15
2022-09-07T20:31:55.305Z,71.63
2022-09-07T20:34:22.181Z,70.91
2022-09-07T20:36:50.208Z,71.55
2022-09-07T20:39:17.994Z,71.24
2022-09-07T20:41:44.894Z,71.08
2022-09-07T20:44:12.027Z,71.27
2022-09-07T20:46:39.266Z,71.65
2022-09-07T20:49:06.481Z,72.00
2022-09-07T20:51:33.441Z,71.18
2022-09-07T20:54:00.181Z,71.31
2022-09-07T20:56:28.781Z,71.78
2022-09-07T20:58:57.911Z,72.14
2022-09-07T21:01:24.979Z,72.04
2022-09-07T21:03:54.093Z,71.61
2022-09-07T21:06:22.335Z,72.32
2022-09-07T21:08:50.347Z,71.69
2022-09-07T21:11:19.126Z,72.70
2022-09-07T21:13:46.838Z,72.86
2022-09-07T21:16:15.909Z,72.71
2022-09-07T21:18:44.286Z,72.30
2022-09-07T21:21:20.582Z,72.21
2022-09-07T21:23:48.185Z,72.25
2022-09-07T21:26:19.662Z,72.09
2022-09-07T21:28:46.583Z,72.11
2022-09-07T21:31:13.500Z,72.12
2022-09-07T21:33:40.346Z,72.79
2022-09-07T21:36:12.530Z,72.69
2022-09-07T21:38:41.652Z,72.62
2022-09-07T21:41:10.033Z,73.15
2022-09-07T21:43:37.182Z,73.39
2022-09-07T21:46:08.475Z,73.59
2022-09-07T21:48:35.710Z,73.07
2022-09-07T21:51:02.897Z,73.17
2022-09-07T21:53:30.298Z,73.64
2022-09-07T21:56:02.333Z,72.71
2022-09-07T21:58:30.130Z,72.95
2022-09-07T22:00:57.869Z,72.74
2022-09-07T22:03:25.862Z,72.72
2022-09-07T22:05:53.199Z,73.56
2022-09-07T22:08:20.168Z,72.96
2022-09-07T22:10:47.140Z,73.46
2022-09-07T22:13:14.122Z,73.33
2022-09-07T22:15:41.695Z,73.02
2022-09-07T22:18:12.330Z,72.84
2022-09-07T22:20:40.288Z,72.67
2022-09-07T22:23:07.075Z,72.67
2022-09-07T22:25:34.880Z,72.94
2022-09-07T22:28:01.907Z,71.99
2022-09-07T22:30:30.923Z,72.83
2022-09-07T22:33:00.034Z,72.88
2022-09-07T22:35:27.333Z,72.61
2022-09-07T22:37:54.309Z,72.23
2022-09-07T22:40:21.217Z,72.49
2022-09-07T22:42:48.046Z,73.07
2022-09-07T22:45:14.925Z,72.46
2022-09-07T22:47:43.430Z,72.69
2022-09-07T22:50:10.384Z,73.11
2022-09-07T22:52:37.496Z,72.67
2022-09-07T22:55:04.471Z,72.93
2022-09-07T22:57:31.432Z,73.02
2022-09-07T22:59:58.344Z,72.03
2022-09-07T23:02:25.213Z,72.78
2022-09-07T23:04:52.219Z,72.64
2022-09-07T23:07:19.135Z,72.73
2022-09-07T23:09:46.210Z,72.54
2022-09-07T23:12:13.147Z,72.26
2022-09-07T23:14:39.957Z,72.16
2022-09-07T23:17:06.895Z,71.80
2022-09-07T23:19:33.660Z,72.00
2022-09-07T23:22:00.786Z,72.04
2022-09-07T23:24:27.622Z,71.79
2022-09-07T23:26:54.417Z,71.52
2022-09-07T23:29:21.331Z,72.40
2022-09-07T23:31:48.287Z,71.49
2022-09-07T23:34:15.378Z,72.57
2022-09-07T23:36:42.200Z,72.23
2022-09-07T23:39:09.741Z,72.36
2022-09-07T23:41:36.818Z,72.21
2022-09-07T23:44:03.915Z,72.00
2022-09-07T23:46:30.903Z,72.32
2022-09-07T23:48:57.941Z,72.09
2022-09-07T23:51:25.010Z,71.64
2022-09-07T23:53:52.799Z,71.57
2022-09-07T23:56:20.328Z,72.59
2022-09-07T23:58:47.117Z,71.88
